createdAt,value
2019-02-25T00:00:37.371Z,58.20
2019-02-25T00:01:37.356Z,64.50
2019-02-25T00:02:37.347Z,59.20
2019-02-25T00:03:37.336Z,56.20
2019-02-25T00:04:37.328Z,63.59
2019-02-25T00:05:37.321Z,54.00
2019-02-25T00:06:37.308Z,56.70
2019-02-25T00:07:37.299Z,50.59
2019-02-25T00:08:37.283Z,45.40
2019-02-25T00:09:37.273Z,37.90
2019-02-25T00:10:37.262Z,40.09
2019-02-25T00:11:37.249Z,49.00
2019-02-25T00:12:37.243Z,37.20
2019-02-25T00:13:37.228Z,40.40
2019-02-25T00:14:37.217Z,31.89
2019-02-25T00:15:37.209Z,38.20
2019-02-25T00:16:37.193Z,47.00
2019-02-25T00:17:37.185Z,45.90
2019-02-25T00:18:37.175Z,50.50
2019-02-25T00:19:37.163Z,48.09
2019-02-25T00:20:37.154Z,51.70
2019-02-25T00:21:37.143Z,54.59
2019-02-25T00:22:37.130Z,62.00
2019-02-25T00:23:37.118Z,59.50
2019-02-25T00:24:37.110Z,50.09
2019-02-25T00:25:37.097Z,47.79
2019-02-25T00:26:37.083Z,51.79
2019-02-25T00:27:37.071Z,37.40
2019-02-25T00:28:37.064Z,43.29
2019-02-25T00:29:37.052Z,39.70
2019-02-25T00:30:37.050Z,53.50
2019-02-25T00:31:37.042Z,36.00
2019-02-25T00:32:37.028Z,43.00
2019-02-25T00:33:37.009Z,40.20
2019-02-25T00:34:36.998Z,39.70
2019-02-25T00:35:36.987Z,46.59
2019-02-25T00:36:36.976Z,45.09
2019-02-25T00:37:36.968Z,34.70
2019-02-25T00:38:36.953Z,36.20
2019-02-25T00:39:36.946Z,41.20
2019-02-25T00:40:36.936Z,30.79
2019-02-25T00:41:36.924Z,33.70
2019-02-25T00:43:36.900Z,29.89
2019-02-25T00:44:36.890Z,31.39
2019-02-25T00:46:36.871Z,31.60
2019-02-25T00:47:36.856Z,35.90
2019-02-25T00:48:36.847Z,39.20
2019-02-25T00:49:36.936Z,32.20
2019-02-25T00:50:36.821Z,36.00
2019-02-25T00:51:36.814Z,32.29
2019-02-25T00:52:36.800Z,44.00
2019-02-25T00:53:36.791Z,34.09
2019-02-25T00:57:36.747Z,30.70
2019-02-25T01:01:36.706Z,37.90
2019-02-25T01:06:36.646Z,42.00
2019-02-25T01:14:36.560Z,23.20
2019-02-25T01:15:36.551Z,23.60
2019-02-25T01:17:36.530Z,25.20
2019-02-25T01:18:36.516Z,26.10
2019-02-25T01:19:36.505Z,31.00
2019-02-25T01:20:36.496Z,27.39
2019-02-25T01:21:36.486Z,28.60
2019-02-25T01:22:36.475Z,36.50
2019-02-25T01:23:36.466Z,44.00
2019-02-25T01:24:36.449Z,72.59
2019-02-25T01:25:36.438Z,66.40
2019-02-25T01:26:36.429Z,52.29
2019-02-25T01:27:36.419Z,86.50
2019-02-25T01:28:36.412Z,68.09
2019-02-25T01:29:36.396Z,49.29
2019-02-25T01:30:36.395Z,70.19
2019-02-25T01:31:36.377Z,68.50
2019-02-25T01:32:36.366Z,98.69
2019-02-25T01:33:36.351Z,81.59
2019-02-25T01:34:36.343Z,121.40
2019-02-25T01:35:36.431Z,124.19
2019-02-25T01:36:36.320Z,128.60
2019-02-25T01:37:36.310Z,129.10
2019-02-25T01:38:36.298Z,107.09
2019-02-25T01:39:36.289Z,101.19
2019-02-25T01:40:36.280Z,62.40
2019-02-25T01:41:36.269Z,68.69
2019-02-25T01:42:36.254Z,75.59
2019-02-25T01:43:36.245Z,80.09
2019-02-25T01:44:36.233Z,109.19
2019-02-25T01:45:36.230Z,152.69
2019-02-25T01:46:36.212Z,138.19
2019-02-25T01:47:37.313Z,148.00
2019-02-25T01:48:36.187Z,144.39
2019-02-25T01:49:36.179Z,71.80
2019-02-25T01:50:36.269Z,107.40
2019-02-25T01:51:36.156Z,103.09
2019-02-25T01:52:36.142Z,77.19
2019-02-25T01:53:36.134Z,111.00
2019-02-25T01:54:36.123Z,115.69
2019-02-25T01:55:36.112Z,112.09
2019-02-25T01:56:36.104Z,117.59
2019-02-25T01:57:36.094Z,118.30
2019-02-25T01:58:36.079Z,104.19
2019-02-25T01:59:36.073Z,112.00
2019-02-25T02:00:36.059Z,110.90
2019-02-25T02:01:36.046Z,117.40
2019-02-25T02:02:36.034Z,89.40
2019-02-25T02:03:36.026Z,71.19
2019-02-25T02:04:36.013Z,86.40
2019-02-25T02:05:36.004Z,117.50
2019-02-25T02:06:35.996Z,130.60
2019-02-25T02:07:35.984Z,118.59
2019-02-25T02:08:35.971Z,125.90
2019-02-25T02:09:35.960Z,121.19
2019-02-25T02:10:35.947Z,113.59
2019-02-25T02:11:35.938Z,128.10
2019-02-25T02:12:35.930Z,114.09
2019-02-25T02:13:35.915Z,89.50
2019-02-25T02:14:35.904Z,104.50
2019-02-25T02:15:35.896Z,107.30
2019-02-25T02:16:35.883Z,97.30
2019-02-25T02:17:35.876Z,89.19
2019-02-25T02:18:35.857Z,92.09
2019-02-25T02:19:35.852Z,90.00
2019-02-25T02:20:35.838Z,89.90
2019-02-25T02:21:35.832Z,87.40
2019-02-25T02:22:35.815Z,86.50
2019-02-25T02:23:35.804Z,85.09
2019-02-25T02:24:35.794Z,73.09
2019-02-25T02:25:35.783Z,77.59
2019-02-25T02:26:35.775Z,74.19
2019-02-25T02:27:35.759Z,75.09
2019-02-25T02:28:35.753Z,83.80
2019-02-25T02:29:35.741Z,63.59
2019-02-25T02:30:35.730Z,71.09
2019-02-25T02:31:35.720Z,71.40
2019-02-25T02:32:35.715Z,67.19
2019-02-25T02:33:35.695Z,70.19
2019-02-25T02:34:35.687Z,64.00
2019-02-25T02:35:35.675Z,77.00
2019-02-25T02:36:35.663Z,64.30
2019-02-25T02:37:35.654Z,58.70
2019-02-25T02:38:35.660Z,61.79
2019-02-25T02:39:35.645Z,70.90
2019-02-25T02:40:35.716Z,75.69
2019-02-25T02:41:35.613Z,74.30
2019-02-25T02:42:35.600Z,80.09
2019-02-25T02:43:35.592Z,96.69
2019-02-25T02:44:35.578Z,100.80
2019-02-25T02:45:35.579Z,106.09
2019-02-25T02:46:35.560Z,101.30
2019-02-25T02:47:35.552Z,124.00
2019-02-25T02:48:35.538Z,99.09
2019-02-25T02:49:35.526Z,101.90
2019-02-25T02:50:35.523Z,110.80
2019-02-25T02:51:35.861Z,115.90
2019-02-25T02:52:35.494Z,105.90
2019-02-25T02:53:35.490Z,97.40
2019-02-25T02:54:35.475Z,108.50
2019-02-25T02:55:35.467Z,112.00
2019-02-25T02:56:35.449Z,111.59
2019-02-25T02:57:35.540Z,111.19
2019-02-25T02:58:35.430Z,101.40
2019-02-25T02:59:35.521Z,120.09
2019-02-25T03:00:35.406Z,120.50
2019-02-25T03:01:35.396Z,105.19
2019-02-25T03:02:35.385Z,103.30
2019-02-25T03:03:35.375Z,120.90
2019-02-25T03:04:35.360Z,123.80
2019-02-25T03:05:35.354Z,104.09
2019-02-25T03:06:35.341Z,113.90
2019-02-25T03:07:35.330Z,117.59
2019-02-25T03:08:35.320Z,100.80
2019-02-25T03:09:35.322Z,80.30
2019-02-25T03:10:35.300Z,102.69
2019-02-25T03:11:35.288Z,86.19
2019-02-25T03:12:35.275Z,87.69
2019-02-25T03:13:35.264Z,96.90
2019-02-25T03:14:35.256Z,95.50
2019-02-25T03:15:35.245Z,91.40
2019-02-25T03:16:35.231Z,82.90
2019-02-25T03:17:35.221Z,69.50
2019-02-25T03:18:35.213Z,74.69
2019-02-25T03:19:35.199Z,65.50
2019-02-25T03:20:35.188Z,62.40
2019-02-25T03:21:35.177Z,66.90
2019-02-25T03:22:35.166Z,77.90
2019-02-25T03:23:35.177Z,78.90
2019-02-25T03:25:03.027Z,61.59
2019-02-25T03:26:02.915Z,68.90
2019-02-25T03:27:02.908Z,77.19
2019-02-25T03:28:02.896Z,88.09
2019-02-25T03:29:02.886Z,61.20
2019-02-25T03:30:02.872Z,83.69
2019-02-25T03:31:02.864Z,84.90
2019-02-25T03:32:02.902Z,76.40
2019-02-25T03:33:02.843Z,85.59
2019-02-25T03:34:02.832Z,88.90
2019-02-25T03:35:02.822Z,108.40
2019-02-25T03:36:02.804Z,94.40
2019-02-25T03:37:02.795Z,94.59
2019-02-25T03:38:02.788Z,95.80
2019-02-25T03:39:02.777Z,88.59
2019-02-25T03:40:02.778Z,86.59
2019-02-25T03:41:02.752Z,92.50
2019-02-25T03:42:02.739Z,86.09
2019-02-25T03:43:02.728Z,85.00
2019-02-25T03:44:02.717Z,88.69
2019-02-25T03:45:02.711Z,81.69
2019-02-25T03:46:02.694Z,86.30
2019-02-25T03:47:02.687Z,103.19
2019-02-25T03:48:02.678Z,88.80
2019-02-25T03:49:02.663Z,90.00
2019-02-25T03:50:02.657Z,93.19
2019-02-25T03:51:02.655Z,94.09
2019-02-25T03:52:03.193Z,100.80
2019-02-25T03:53:02.619Z,89.50
2019-02-25T03:54:02.610Z,99.30
2019-02-25T03:55:02.604Z,102.00
2019-02-25T03:56:02.588Z,105.40
2019-02-25T03:57:02.578Z,97.40
2019-02-25T03:58:02.568Z,80.40
2019-02-25T03:59:02.557Z,90.40
2019-02-25T04:00:02.548Z,93.69
2019-02-25T04:01:02.537Z,95.50
2019-02-25T04:02:02.527Z,96.30
2019-02-25T04:03:02.521Z,98.09
2019-02-25T04:04:02.503Z,89.59
2019-02-25T04:05:02.496Z,103.09
2019-02-25T04:06:02.482Z,91.80
2019-02-25T04:07:02.473Z,100.59
2019-02-25T04:08:02.462Z,95.40
2019-02-25T04:09:02.455Z,88.80
2019-02-25T04:10:02.440Z,88.59
2019-02-25T04:11:02.433Z,90.80
2019-02-25T04:12:02.421Z,97.69
2019-02-25T04:13:02.410Z,90.69
2019-02-25T04:14:02.399Z,86.00
2019-02-25T04:15:02.389Z,95.40
2019-02-25T04:16:02.377Z,84.50
2019-02-25T04:17:02.431Z,88.90
2019-02-25T04:18:02.359Z,85.59
2019-02-25T04:19:02.348Z,78.19
2019-02-25T04:20:02.336Z,72.40
2019-02-25T04:21:02.325Z,78.09
2019-02-25T04:22:02.315Z,80.69
2019-02-25T04:23:02.305Z,84.19
2019-02-25T04:24:02.295Z,91.40
2019-02-25T04:25:02.282Z,86.09
2019-02-25T04:26:02.270Z,78.50
2019-02-25T04:27:02.265Z,84.50
2019-02-25T04:28:02.250Z,75.59
2019-02-25T04:29:02.243Z,80.40
2019-02-25T04:30:02.228Z,81.50
2019-02-25T04:31:02.219Z,82.09
2019-02-25T04:32:02.206Z,86.30
2019-02-25T04:33:02.200Z,100.69
2019-02-25T04:34:02.185Z,114.00
2019-02-25T04:35:02.184Z,108.59
2019-02-25T04:36:02.164Z,112.40
2019-02-25T04:37:02.153Z,112.30
2019-02-25T04:38:03.059Z,103.30
2019-02-25T04:39:02.135Z,99.69
2019-02-25T04:40:02.125Z,102.80
2019-02-25T04:41:02.118Z,98.09
2019-02-25T04:42:02.105Z,98.00
2019-02-25T04:43:02.091Z,89.69
2019-02-25T04:44:02.079Z,99.30
2019-02-25T04:45:02.068Z,94.80
2019-02-25T04:46:02.059Z,98.09
2019-02-25T04:47:02.050Z,93.09
2019-02-25T04:48:02.040Z,92.80
2019-02-25T04:49:02.033Z,88.80
2019-02-25T04:50:02.014Z,88.59
2019-02-25T04:51:02.007Z,92.59
2019-02-25T04:52:01.995Z,80.09
2019-02-25T04:53:02.091Z,82.80
2019-02-25T04:54:01.975Z,81.90
2019-02-25T04:55:01.963Z,94.30
2019-02-25T04:56:01.954Z,92.30
2019-02-25T04:57:01.940Z,74.80
2019-02-25T04:58:01.934Z,84.40
2019-02-25T04:59:01.921Z,89.50
2019-02-25T05:00:01.921Z,84.09
2019-02-25T05:01:01.905Z,81.09
2019-02-25T05:02:02.426Z,84.19
2019-02-25T05:03:01.878Z,80.50
2019-02-25T05:04:01.872Z,69.30
2019-02-25T05:05:01.859Z,86.59
2019-02-25T05:06:01.863Z,75.19
2019-02-25T05:07:01.836Z,85.19
2019-02-25T05:08:01.823Z,81.80
2019-02-25T05:09:01.812Z,95.09
2019-02-25T05:10:01.802Z,88.59
2019-02-25T05:11:01.791Z,93.90
2019-02-25T05:12:01.786Z,94.30
2019-02-25T05:13:01.771Z,97.90
2019-02-25T05:14:01.755Z,98.59
2019-02-25T05:15:01.745Z,103.80
2019-02-25T05:16:01.740Z,138.80
2019-02-25T05:17:01.725Z,154.39
2019-02-25T05:18:01.722Z,146.10
2019-02-25T05:19:01.713Z,139.10
2019-02-25T05:20:01.700Z,143.89
2019-02-25T05:21:01.684Z,104.90
2019-02-25T05:22:01.677Z,98.30
2019-02-25T05:23:01.665Z,69.19
2019-02-25T05:24:01.649Z,66.09
2019-02-25T05:25:01.642Z,74.69
2019-02-25T05:26:01.628Z,62.50
2019-02-25T05:27:01.619Z,69.50
2019-02-25T05:28:01.606Z,62.00
2019-02-25T05:29:01.600Z,68.69
2019-02-25T05:30:01.592Z,55.29
2019-02-25T05:31:01.577Z,59.20
2019-02-25T05:32:01.573Z,68.80
2019-02-25T05:33:01.560Z,62.79
2019-02-25T05:34:01.544Z,62.20
2019-02-25T05:35:01.535Z,63.50
2019-02-25T05:36:01.540Z,63.29
2019-02-25T05:37:01.526Z,61.09
2019-02-25T05:38:01.503Z,70.40
2019-02-25T05:39:01.495Z,61.90
2019-02-25T05:40:01.482Z,61.70
2019-02-25T05:41:01.676Z,68.09
2019-02-25T05:42:01.464Z,70.50
2019-02-25T05:43:01.465Z,58.70
2019-02-25T05:44:01.444Z,69.69
2019-02-25T05:45:01.437Z,69.40
2019-02-25T05:46:01.414Z,77.90
2019-02-25T05:47:01.402Z,66.59
2019-02-25T05:48:01.395Z,67.00
2019-02-25T05:49:01.382Z,68.50
2019-02-25T05:50:01.370Z,63.40
2019-02-25T05:51:01.361Z,70.00
2019-02-25T05:52:01.347Z,65.59
2019-02-25T05:53:01.443Z,67.80
2019-02-25T05:54:01.429Z,64.50
2019-02-25T05:55:01.317Z,59.70
2019-02-25T05:56:01.306Z,62.40
2019-02-25T05:57:01.293Z,69.40
2019-02-25T05:58:01.281Z,66.50
2019-02-25T05:59:01.279Z,68.40
2019-02-25T06:00:01.267Z,45.90
2019-02-25T06:01:01.254Z,48.40
2019-02-25T06:02:01.239Z,45.20
2019-02-25T06:03:01.236Z,51.29
2019-02-25T06:04:01.218Z,51.29
2019-02-25T06:05:01.205Z,50.09
2019-02-25T06:06:01.198Z,48.20
2019-02-25T06:07:01.186Z,48.40
2019-02-25T06:08:01.176Z,53.90
2019-02-25T06:09:01.163Z,55.09
2019-02-25T06:10:01.153Z,50.79
2019-02-25T06:11:01.143Z,56.70
2019-02-25T06:12:01.132Z,55.09
2019-02-25T06:13:01.119Z,50.70
2019-02-25T06:14:01.109Z,50.70
2019-02-25T06:15:01.101Z,52.70
2019-02-25T06:16:01.088Z,49.59
2019-02-25T06:17:01.075Z,51.90
2019-02-25T06:18:01.106Z,48.79
2019-02-25T06:19:01.054Z,47.09
2019-02-25T06:20:01.043Z,45.70
2019-02-25T06:21:01.034Z,43.00
2019-02-25T06:22:01.024Z,45.00
2019-02-25T06:23:01.013Z,39.90
2019-02-25T06:24:01.006Z,41.29
2019-02-25T06:25:00.993Z,44.79
2019-02-25T06:26:00.981Z,25.39
2019-02-25T06:27:00.973Z,27.20
2019-02-25T06:28:00.960Z,20.60
2019-02-25T06:29:00.951Z,20.39
2019-02-25T06:30:00.940Z,18.50
2019-02-25T06:31:00.928Z,15.39
2019-02-25T06:32:00.917Z,20.10
2019-02-25T06:33:00.907Z,21.79
2019-02-25T06:34:00.896Z,16.29
2019-02-25T06:35:00.885Z,19.60
2019-02-25T06:36:00.879Z,19.60
2019-02-25T06:37:00.867Z,18.60
2019-02-25T06:38:00.856Z,21.20
2019-02-25T06:39:00.845Z,18.10
2019-02-25T06:40:00.833Z,17.39
2019-02-25T06:41:00.825Z,16.39
2019-02-25T06:42:00.808Z,16.20
2019-02-25T06:43:00.801Z,16.20
2019-02-25T06:44:00.787Z,13.00
2019-02-25T06:45:00.852Z,16.20
2019-02-25T06:46:00.765Z,19.39
2019-02-25T06:47:00.754Z,14.00
2019-02-25T06:48:00.742Z,18.10
2019-02-25T06:49:00.733Z,19.20
2019-02-25T06:50:00.719Z,14.50
2019-02-25T06:51:00.716Z,11.10
2019-02-25T06:52:00.699Z,12.19
2019-02-25T06:53:00.695Z,11.00
2019-02-25T06:54:00.930Z,11.60
2019-02-25T06:55:00.668Z,11.30
2019-02-25T06:56:00.661Z,13.39
2019-02-25T06:57:00.649Z,12.19
2019-02-25T06:58:00.643Z,14.30
2019-02-25T06:59:00.624Z,15.30
2019-02-25T07:00:00.620Z,18.10
2019-02-25T07:01:00.606Z,14.00
2019-02-25T07:02:00.596Z,15.60
2019-02-25T07:03:00.583Z,11.00
2019-02-25T07:04:00.573Z,13.60
2019-02-25T07:05:00.564Z,11.89
2019-02-25T07:06:00.551Z,10.89
2019-02-25T07:07:00.539Z,10.39
2019-02-25T07:08:00.528Z,12.39
2019-02-25T07:09:00.623Z,10.89
2019-02-25T07:10:00.510Z,11.69
2019-02-25T07:11:00.505Z,11.80
2019-02-25T07:12:00.489Z,13.39
2019-02-25T07:13:00.478Z,11.80
2019-02-25T07:14:00.465Z,13.60
2019-02-25T07:15:00.455Z,12.50
2019-02-25T07:16:00.443Z,13.50
2019-02-25T07:17:00.437Z,11.10
2019-02-25T07:18:00.428Z,14.00
2019-02-25T07:19:00.418Z,10.80
2019-02-25T07:20:00.406Z,9.60
2019-02-25T07:21:00.397Z,11.39
2019-02-25T07:22:00.384Z,13.19
2019-02-25T07:23:00.371Z,12.60
2019-02-25T07:24:00.362Z,14.50
2019-02-25T07:25:00.350Z,7.80
2019-02-25T07:26:00.339Z,9.00
2019-02-25T07:27:00.330Z,9.60
2019-02-25T07:28:00.319Z,11.39
2019-02-25T07:29:00.312Z,11.19
2019-02-25T07:30:00.328Z,9.69
2019-02-25T07:31:00.286Z,11.10
2019-02-25T07:32:00.281Z,12.10
2019-02-25T07:33:00.265Z,10.69
2019-02-25T07:34:00.253Z,12.50
2019-02-25T07:35:00.357Z,14.19
2019-02-25T07:36:00.329Z,9.80
2019-02-25T07:37:00.227Z,11.60
2019-02-25T07:38:00.209Z,11.10
2019-02-25T07:39:00.197Z,13.10
2019-02-25T07:40:00.302Z,14.10
2019-02-25T07:41:00.179Z,15.69
2019-02-25T07:42:00.166Z,12.10
2019-02-25T07:43:00.162Z,16.70
2019-02-25T07:44:00.143Z,9.80
2019-02-25T07:45:00.310Z,11.80
2019-02-25T07:46:00.120Z,9.69
2019-02-25T07:47:00.109Z,13.89
2019-02-25T07:48:00.098Z,15.00
2019-02-25T07:49:00.099Z,11.30
2019-02-25T07:50:00.096Z,10.60
2019-02-25T07:51:00.072Z,14.69
2019-02-25T07:52:00.071Z,12.00
2019-02-25T07:53:00.045Z,11.69
2019-02-25T07:54:00.037Z,13.10
2019-02-25T07:55:00.270Z,16.89
2019-02-25T07:56:02.600Z,13.50
2019-02-25T07:56:59.999Z,18.60
2019-02-25T07:57:59.990Z,19.29
2019-02-25T07:58:59.980Z,27.50
2019-02-25T07:59:59.966Z,32.70
2019-02-25T08:00:59.960Z,36.90
2019-02-25T08:01:59.951Z,39.29
2019-02-25T08:02:59.934Z,36.29
2019-02-25T08:03:59.928Z,35.20
2019-02-25T08:04:59.914Z,28.89
2019-02-25T08:05:59.906Z,30.79
2019-02-25T08:06:59.892Z,33.50
2019-02-25T08:07:59.882Z,31.89
2019-02-25T08:08:59.871Z,37.09
2019-02-25T08:09:59.861Z,34.59
2019-02-25T08:10:59.845Z,31.50
2019-02-25T08:11:59.841Z,29.60
2019-02-25T08:12:59.824Z,30.60
2019-02-25T08:13:59.820Z,30.29
2019-02-25T08:14:59.806Z,34.50
2019-02-25T08:15:59.793Z,31.60
2019-02-25T08:16:59.782Z,27.10
2019-02-25T08:17:59.777Z,24.00
2019-02-25T08:18:59.758Z,28.29
2019-02-25T08:19:59.752Z,26.00
2019-02-25T08:20:59.739Z,28.50
2019-02-25T08:21:59.729Z,24.89
2019-02-25T08:22:59.715Z,28.50
2019-02-25T08:23:59.706Z,29.29
2019-02-25T08:24:59.695Z,29.10
2019-02-25T08:25:59.687Z,28.60
2019-02-25T08:26:59.674Z,28.00
2019-02-25T08:27:59.662Z,23.10
2019-02-25T08:28:59.653Z,24.00
2019-02-25T08:29:59.641Z,25.10
2019-02-25T08:30:59.630Z,30.60
2019-02-25T08:31:59.618Z,24.39
2019-02-25T08:32:59.608Z,21.50
2019-02-25T08:33:59.603Z,23.60
2019-02-25T08:34:59.587Z,24.50
2019-02-25T08:35:59.573Z,22.10
2019-02-25T08:37:02.413Z,23.70
2019-02-25T08:37:59.553Z,22.39
2019-02-25T08:38:59.543Z,26.79
2019-02-25T08:39:59.534Z,28.00
2019-02-25T08:40:59.523Z,25.10
2019-02-25T08:41:59.511Z,22.79
2019-02-25T08:42:59.497Z,28.60
2019-02-25T08:43:59.490Z,26.60
2019-02-25T08:44:59.477Z,25.10
2019-02-25T08:45:59.465Z,22.39
2019-02-25T08:46:59.455Z,23.39
2019-02-25T08:47:59.445Z,21.20
2019-02-25T08:48:59.435Z,34.59
2019-02-25T08:49:59.431Z,22.70
2019-02-25T08:50:59.415Z,23.29
2019-02-25T08:51:59.448Z,23.70
2019-02-25T08:52:59.389Z,32.59
2019-02-25T08:53:59.380Z,26.20
2019-02-25T08:54:59.471Z,33.20
2019-02-25T08:55:59.456Z,25.70
2019-02-25T08:56:59.347Z,26.10
2019-02-25T08:57:59.434Z,26.10
2019-02-25T08:58:59.326Z,22.20
2019-02-25T08:59:59.417Z,25.00
2019-02-25T09:00:59.308Z,25.70
2019-02-25T09:01:59.295Z,25.29
2019-02-25T09:02:59.281Z,21.39
2019-02-25T09:03:59.278Z,27.39
2019-02-25T09:04:59.258Z,26.39
2019-02-25T09:05:59.248Z,24.60
2019-02-25T09:06:59.238Z,26.79
2019-02-25T09:07:59.238Z,25.50
2019-02-25T09:08:59.215Z,21.70
2019-02-25T09:09:59.205Z,19.89
2019-02-25T09:10:59.198Z,23.50
2019-02-25T09:11:59.184Z,21.79
2019-02-25T09:12:59.173Z,27.10
2019-02-25T09:13:59.160Z,27.00
2019-02-25T09:14:59.149Z,20.70
2019-02-25T09:15:59.150Z,26.00
2019-02-25T09:16:59.131Z,16.79
2019-02-25T09:17:59.120Z,18.60
2019-02-25T09:18:59.107Z,14.60
2019-02-25T09:19:59.098Z,19.89
2019-02-25T09:20:59.098Z,24.29
2019-02-25T09:21:59.080Z,20.50
2019-02-25T09:22:59.066Z,18.29
2019-02-25T09:23:59.057Z,19.29
2019-02-25T09:24:59.043Z,16.60
2019-02-25T09:25:59.035Z,18.70
2019-02-25T09:26:59.024Z,16.70
2019-02-25T09:27:59.010Z,19.00
2019-02-25T09:28:59.003Z,17.39
2019-02-25T09:29:58.993Z,14.50
2019-02-25T09:30:58.977Z,21.79
2019-02-25T09:31:58.973Z,16.39
2019-02-25T09:32:58.960Z,14.69
2019-02-25T09:33:58.952Z,17.70
2019-02-25T09:34:58.941Z,17.50
2019-02-25T09:35:58.928Z,17.20
2019-02-25T09:36:58.917Z,19.60
2019-02-25T09:37:58.908Z,14.69
2019-02-25T09:38:58.898Z,15.69
2019-02-25T09:39:58.888Z,16.60
2019-02-25T09:40:58.872Z,16.10
2019-02-25T09:41:58.863Z,16.50
2019-02-25T09:42:58.850Z,15.80
2019-02-25T09:43:58.840Z,12.10
2019-02-25T09:44:58.832Z,13.30
2019-02-25T09:45:58.823Z,12.10
2019-02-25T09:46:58.809Z,16.50
2019-02-25T09:47:58.796Z,14.19
2019-02-25T09:48:58.784Z,14.10
2019-02-25T09:49:58.776Z,9.19
2019-02-25T09:50:58.770Z,11.00
2019-02-25T09:51:58.751Z,16.20
2019-02-25T09:52:58.742Z,14.00
2019-02-25T09:53:58.737Z,12.60
2019-02-25T09:54:58.726Z,14.60
2019-02-25T09:55:59.011Z,17.50
2019-02-25T09:56:58.703Z,19.10
2019-02-25T09:57:58.690Z,15.19
2019-02-25T09:58:58.682Z,23.20
2019-02-25T09:59:58.668Z,19.29
2019-02-25T10:00:58.658Z,19.20
2019-02-25T10:01:58.650Z,15.19
2019-02-25T10:02:58.637Z,15.00
2019-02-25T10:03:58.628Z,13.39
2019-02-25T10:04:58.613Z,14.39
2019-02-25T10:05:58.610Z,11.10
2019-02-25T10:07:02.312Z,14.00
2019-02-25T10:07:58.583Z,14.19
2019-02-25T10:08:58.573Z,9.80
2019-02-25T10:09:58.563Z,9.60
2019-02-25T10:10:58.559Z,9.50
2019-02-25T10:11:58.544Z,10.89
2019-02-25T10:12:58.530Z,9.69
2019-02-25T10:13:58.522Z,13.00
2019-02-25T10:14:58.511Z,17.00
2019-02-25T10:15:58.499Z,13.89
2019-02-25T10:16:58.493Z,17.70
2019-02-25T10:17:58.481Z,21.00
2019-02-25T10:18:58.472Z,20.50
2019-02-25T10:19:58.456Z,17.20
2019-02-25T10:20:58.449Z,18.00
2019-02-25T10:21:58.438Z,18.20
2019-02-25T10:22:58.427Z,17.50
2019-02-25T10:23:58.415Z,16.79
2019-02-25T10:24:58.513Z,18.20
2019-02-25T10:25:58.398Z,21.79
2019-02-25T10:26:58.386Z,19.00
2019-02-25T10:27:58.373Z,19.70
2019-02-25T10:28:58.368Z,18.29
2019-02-25T10:29:58.356Z,20.50
2019-02-25T10:30:58.352Z,16.50
2019-02-25T10:32:00.021Z,22.60
2019-02-25T10:32:58.324Z,16.50
2019-02-25T10:33:58.312Z,19.50
2019-02-25T10:34:58.303Z,13.19
2019-02-25T10:35:58.292Z,16.79
2019-02-25T10:36:58.278Z,13.60
2019-02-25T10:37:58.274Z,13.69
2019-02-25T10:38:58.262Z,14.60
2019-02-25T10:39:58.247Z,19.10
2019-02-25T10:40:59.394Z,16.70
2019-02-25T10:41:59.581Z,11.89
2019-02-25T10:42:58.215Z,15.69
2019-02-25T10:44:00.133Z,13.60
2019-02-25T10:44:58.201Z,13.39
2019-02-25T10:45:58.186Z,13.19
2019-02-25T10:46:58.175Z,12.60
2019-02-25T10:47:58.908Z,15.69
2019-02-25T10:48:59.187Z,13.80
2019-02-25T10:49:58.710Z,17.60
2019-02-25T10:50:58.130Z,15.30
2019-02-25T10:51:58.123Z,13.69
2019-02-25T10:53:03.446Z,14.30
2019-02-25T10:53:58.104Z,16.39
2019-02-25T10:54:58.302Z,15.39
2019-02-25T10:55:58.080Z,13.60
2019-02-25T10:56:58.173Z,11.89
2019-02-25T10:57:59.759Z,16.10
2019-02-25T10:58:59.763Z,19.89
2019-02-25T10:59:58.038Z,18.00
2019-02-25T11:00:58.031Z,14.19
2019-02-25T11:01:58.021Z,12.00
2019-02-25T11:02:58.319Z,15.89
2019-02-25T11:03:57.998Z,10.10
2019-02-25T11:04:57.992Z,13.39
2019-02-25T11:05:58.579Z,14.10
2019-02-25T11:06:58.908Z,18.10
2019-02-25T11:07:57.962Z,10.30
2019-02-25T11:08:57.945Z,14.30
2019-02-25T11:09:57.936Z,12.30
2019-02-25T11:10:57.924Z,14.39
2019-02-25T11:11:59.973Z,17.29
2019-02-25T11:12:59.744Z,15.39
2019-02-25T11:13:58.851Z,17.39
2019-02-25T11:14:57.901Z,15.30
2019-02-25T11:15:57.887Z,14.60
2019-02-25T11:16:57.892Z,16.89
2019-02-25T11:17:57.856Z,13.50
2019-02-25T11:18:58.673Z,12.10
2019-02-25T11:19:58.690Z,15.19
2019-02-25T11:20:58.992Z,13.69
2019-02-25T11:21:57.829Z,14.89
2019-02-25T11:22:57.807Z,12.10
2019-02-25T11:23:59.085Z,15.30
2019-02-25T11:24:57.892Z,10.89
2019-02-25T11:25:58.299Z,13.19
2019-02-25T11:26:59.056Z,14.50
2019-02-25T11:27:57.763Z,12.89
2019-02-25T11:28:57.743Z,13.89
2019-02-25T11:29:57.735Z,14.89
2019-02-25T11:30:57.728Z,10.60
2019-02-25T11:31:57.717Z,11.00
2019-02-25T11:32:59.593Z,11.50
2019-02-25T11:33:58.600Z,13.50
2019-02-25T11:34:57.684Z,14.10
2019-02-25T11:35:57.664Z,14.00
2019-02-25T11:37:24.498Z,12.50
2019-02-25T11:38:23.758Z,12.00
2019-02-25T11:39:22.121Z,14.39
2019-02-25T11:40:22.121Z,14.80
2019-02-25T11:41:22.088Z,12.00
2019-02-25T11:42:22.075Z,13.30
2019-02-25T11:43:22.069Z,14.89
2019-02-25T11:44:23.431Z,15.60
2019-02-25T11:45:22.047Z,25.50
2019-02-25T11:46:22.032Z,17.39
2019-02-25T11:47:22.023Z,34.09
2019-02-25T11:48:22.706Z,23.20
2019-02-25T11:49:22.000Z,23.20
2019-02-25T11:50:21.993Z,24.29
2019-02-25T11:51:21.978Z,22.39
2019-02-25T11:52:21.969Z,22.20
2019-02-25T11:53:21.960Z,23.00
2019-02-25T11:54:21.952Z,22.50
2019-02-25T11:55:22.069Z,17.10
2019-02-25T11:56:21.929Z,17.00
2019-02-25T11:57:22.217Z,15.80
2019-02-25T11:58:21.905Z,23.29
2019-02-25T11:59:21.897Z,19.39
2019-02-25T12:00:21.887Z,19.50
2019-02-25T12:01:21.877Z,21.50
2019-02-25T12:02:25.593Z,19.10
2019-02-25T12:03:21.853Z,18.10
2019-02-25T12:04:21.842Z,15.69
2019-02-25T12:05:21.830Z,20.79
2019-02-25T12:06:21.819Z,27.50
2019-02-25T12:07:21.808Z,20.00
2019-02-25T12:08:21.800Z,23.20
2019-02-25T12:09:21.788Z,22.70
2019-02-25T12:10:21.778Z,26.79
2019-02-25T12:11:21.767Z,31.60
2019-02-25T12:12:21.758Z,30.00
2019-02-25T12:13:21.746Z,18.29
2019-02-25T12:14:21.733Z,22.29
2019-02-25T12:15:21.726Z,27.39
2019-02-25T12:16:21.840Z,22.60
2019-02-25T12:17:21.704Z,18.20
2019-02-25T12:18:21.693Z,23.89
2019-02-25T12:19:21.682Z,16.00
2019-02-25T12:20:21.681Z,16.50
2019-02-25T12:21:21.660Z,18.39
2019-02-25T12:22:21.650Z,20.20
2019-02-25T12:23:21.639Z,14.19
2019-02-25T12:24:21.626Z,19.60
2019-02-25T12:25:21.616Z,16.00
2019-02-25T12:26:21.608Z,15.10
2019-02-25T12:27:21.596Z,14.89
2019-02-25T12:28:21.585Z,16.70
2019-02-25T12:29:21.574Z,22.50
2019-02-25T12:30:21.564Z,20.89
2019-02-25T12:31:21.552Z,19.10
2019-02-25T12:32:21.542Z,18.50
2019-02-25T12:33:21.531Z,17.39
2019-02-25T12:34:21.518Z,18.39
2019-02-25T12:35:21.510Z,19.79
2019-02-25T12:36:21.500Z,20.20
2019-02-25T12:37:21.493Z,13.69
2019-02-25T12:38:21.479Z,13.80
2019-02-25T12:39:21.465Z,15.19
2019-02-25T12:40:21.555Z,11.69
2019-02-25T12:41:21.444Z,15.69
2019-02-25T12:42:21.430Z,14.60
2019-02-25T12:43:21.420Z,14.39
2019-02-25T12:44:21.410Z,17.60
2019-02-25T12:45:21.401Z,15.50
2019-02-25T12:46:21.388Z,10.30
2019-02-25T12:47:21.376Z,16.20
2019-02-25T12:48:22.787Z,18.20
2019-02-25T12:49:21.356Z,14.39
2019-02-25T12:50:21.347Z,14.89
2019-02-25T12:51:21.336Z,18.60
2019-02-25T12:52:21.324Z,16.20
2019-02-25T12:53:21.310Z,15.69
2019-02-25T12:54:21.306Z,12.69
2019-02-25T12:55:21.289Z,16.20
2019-02-25T12:56:21.280Z,11.39
2019-02-25T12:57:21.370Z,13.60
2019-02-25T12:58:21.359Z,12.10
2019-02-25T12:59:21.244Z,12.80
2019-02-25T13:00:21.240Z,13.30
2019-02-25T13:01:21.225Z,14.50
2019-02-25T13:02:21.217Z,13.89
2019-02-25T13:03:21.205Z,17.29
2019-02-25T13:04:21.193Z,18.29
2019-02-25T13:05:21.179Z,14.50
2019-02-25T13:06:21.173Z,14.80
2019-02-25T13:07:21.163Z,16.60
2019-02-25T13:08:21.147Z,18.29
2019-02-25T13:09:21.236Z,29.10
2019-02-25T13:10:21.128Z,14.39
2019-02-25T13:11:21.147Z,14.30